Terminal Aerodrome Forecast
Issued by NWS

Home | Current Version | Previous Version | Text Only | Print | Product List | Glossary On
Versions: 1 2 3 4 5 6 7 8 9 10 11 12 13
000
FTUS44 KBMX 282300 RRA
TAFANB
TAF
KANB 282342Z 2900/2924 VRB04KT 6SM -DZ SCT005 OVC012
     FM290100 VRB03KT 5SM -DZ BR OVC005
     FM290600 VRB03KT 4SM -RA BR OVC005
     FM291300 36004KT 2SM BR OVC004
     FM291700 34005KT P6SM OVC007=

USA.gov is the U.S. government's official web portal to all federal, state and local government web resources and services.